createdAt,value
2019-01-27T00:00:24.969Z,23.00
2019-01-27T00:02:53.637Z,23.00
2019-01-27T00:05:22.296Z,23.00
2019-01-27T00:07:50.958Z,19.87
2019-01-27T00:10:21.556Z,20.90
2019-01-27T00:12:50.731Z,22.37
2019-01-27T00:15:20.006Z,20.80
2019-01-27T00:17:49.340Z,26.25
2019-01-27T00:20:23.439Z,23.25
2019-01-27T00:22:52.654Z,21.82
2019-01-27T00:25:21.704Z,22.62
2019-01-27T00:27:50.899Z,21.57
2019-01-27T00:30:22.659Z,20.85
2019-01-27T00:32:52.256Z,23.65
2019-01-27T00:35:21.356Z,21.50
2019-01-27T00:37:50.804Z,22.75
2019-01-27T00:40:19.957Z,21.42
2019-01-27T00:42:49.158Z,27.02
2019-01-27T00:45:18.816Z,30.02
2019-01-27T00:47:48.191Z,29.57
2019-01-27T00:50:18.109Z,26.50
2019-01-27T00:52:48.380Z,26.12
2019-01-27T00:55:22.102Z,30.40
2019-01-27T00:57:52.058Z,29.15
2019-01-27T01:00:26.682Z,33.73
2019-01-27T01:02:56.710Z,28.60
2019-01-27T01:05:26.237Z,29.27
2019-01-27T01:07:55.515Z,28.92
2019-01-27T01:10:25.070Z,32.45
2019-01-27T01:12:54.976Z,29.50
2019-01-27T01:15:24.372Z,28.23
2019-01-27T01:17:53.683Z,29.63
2019-01-27T01:20:23.553Z,30.25
2019-01-27T01:22:52.969Z,31.50
2019-01-27T01:25:24.344Z,37.08
2019-01-27T01:27:53.276Z,35.55
2019-01-27T01:30:27.834Z,33.58
2019-01-27T01:32:56.664Z,37.98
2019-01-27T01:35:25.616Z,40.33
2019-01-27T01:37:54.583Z,58.90
2019-01-27T01:40:23.749Z,49.48
2019-01-27T01:42:53.103Z,46.13
2019-01-27T01:45:33.472Z,50.70
2019-01-27T01:48:03.659Z,45.23
2019-01-27T01:50:33.719Z,39.15
2019-01-27T01:53:02.872Z,39.33
2019-01-27T01:55:32.044Z,35.00
2019-01-27T01:58:01.343Z,36.83
2019-01-27T02:00:30.751Z,41.37
2019-01-27T02:02:59.853Z,43.10
2019-01-27T02:05:28.909Z,44.25
2019-01-27T02:07:58.269Z,45.40
2019-01-27T02:10:28.014Z,45.00
2019-01-27T02:12:56.670Z,50.95
2019-01-27T02:15:31.620Z,43.05
2019-01-27T02:18:01.068Z,43.15
2019-01-27T02:20:29.971Z,39.50
2019-01-27T02:22:59.517Z,36.80
2019-01-27T02:25:29.192Z,39.73
2019-01-27T02:27:58.530Z,37.08
2019-01-27T02:30:28.149Z,35.50
2019-01-27T02:32:58.214Z,35.23
2019-01-27T02:35:27.777Z,41.55
2019-01-27T02:37:57.125Z,35.95
2019-01-27T02:40:26.255Z,42.10
2019-01-27T02:42:55.254Z,50.75
2019-01-27T02:45:24.613Z,52.33
2019-01-27T02:47:53.908Z,57.40
2019-01-27T02:50:23.156Z,52.10
2019-01-27T02:52:52.525Z,51.80
2019-01-27T02:55:21.171Z,51.60
2019-01-27T02:57:50.527Z,46.83
2019-01-27T03:00:21.058Z,52.75
2019-01-27T03:02:50.334Z,48.83
2019-01-27T03:05:37.790Z,53.70
2019-01-27T03:08:07.688Z,69.37
2019-01-27T03:10:36.880Z,52.15
2019-01-27T03:13:05.930Z,41.73
2019-01-27T03:15:35.403Z,43.28
2019-01-27T03:18:04.909Z,41.60
2019-01-27T03:20:34.247Z,46.77
2019-01-27T03:23:03.728Z,45.75
2019-01-27T03:25:33.030Z,42.38
2019-01-27T03:28:02.849Z,49.88
2019-01-27T03:30:32.465Z,47.03
2019-01-27T03:33:01.787Z,46.55
2019-01-27T03:35:30.996Z,43.17
2019-01-27T03:38:00.341Z,40.95
2019-01-27T03:40:29.130Z,41.90
2019-01-27T03:42:58.744Z,38.65
2019-01-27T03:45:28.378Z,41.73
2019-01-27T03:47:57.030Z,40.23
2019-01-27T03:50:26.324Z,40.60
2019-01-27T03:52:55.539Z,46.60
2019-01-27T03:55:26.716Z,42.40
2019-01-27T03:57:55.780Z,38.45
2019-01-27T04:00:25.328Z,44.60
2019-01-27T04:02:54.645Z,38.35
2019-01-27T04:05:23.868Z,34.70
2019-01-27T04:07:53.614Z,36.83
2019-01-27T04:10:23.938Z,36.30
2019-01-27T04:12:53.501Z,36.93
2019-01-27T04:15:23.100Z,34.40
2019-01-27T04:17:52.825Z,32.55
2019-01-27T04:20:22.876Z,35.92
2019-01-27T04:22:51.903Z,36.05
2019-01-27T04:25:20.996Z,42.17
2019-01-27T04:27:49.753Z,43.85
2019-01-27T04:30:25.228Z,45.78
2019-01-27T04:32:54.999Z,65.55
2019-01-27T04:35:24.280Z,80.07
2019-01-27T04:37:54.886Z,57.20
2019-01-27T04:40:24.752Z,46.02
2019-01-27T04:42:53.794Z,50.43
2019-01-27T04:45:25.844Z,99.07
2019-01-27T04:47:55.143Z,77.87
2019-01-27T04:50:24.339Z,52.85
2019-01-27T04:52:53.653Z,51.13
2019-01-27T04:55:23.236Z,50.73
2019-01-27T04:57:52.890Z,44.75
2019-01-27T05:00:28.029Z,46.92
2019-01-27T05:03:05.136Z,44.08
2019-01-27T05:05:34.286Z,46.45
2019-01-27T05:08:03.063Z,45.25
2019-01-27T05:10:31.849Z,44.67
2019-01-27T05:13:00.526Z,44.88
2019-01-27T05:15:33.286Z,48.85
2019-01-27T05:18:01.950Z,50.58
2019-01-27T05:20:30.954Z,47.67
2019-01-27T05:23:00.066Z,47.33
2019-01-27T05:25:29.563Z,46.85
2019-01-27T05:27:59.469Z,47.03
2019-01-27T05:30:28.512Z,46.88
2019-01-27T05:32:57.823Z,46.73
2019-01-27T05:35:26.608Z,46.15
2019-01-27T05:37:56.033Z,49.15
2019-01-27T05:40:25.914Z,55.78
2019-01-27T05:42:55.185Z,47.65
2019-01-27T05:45:24.609Z,69.42
2019-01-27T05:47:53.837Z,48.60
2019-01-27T05:50:25.408Z,63.83
2019-01-27T05:52:54.038Z,66.90
2019-01-27T05:55:22.829Z,74.82
2019-01-27T05:57:52.495Z,67.47
2019-01-27T06:00:29.739Z,58.70
2019-01-27T06:02:58.810Z,62.73
2019-01-27T06:05:27.924Z,57.33
2019-01-27T06:07:57.105Z,58.68
2019-01-27T06:10:26.156Z,63.75
2019-01-27T06:12:55.582Z,56.65
2019-01-27T06:15:24.892Z,58.60
2019-01-27T06:17:54.232Z,59.33
2019-01-27T06:20:23.489Z,56.70
2019-01-27T06:22:52.707Z,53.28
2019-01-27T06:25:21.773Z,61.35
2019-01-27T06:27:50.869Z,56.95
2019-01-27T06:30:26.829Z,55.40
2019-01-27T06:33:10.503Z,48.55
2019-01-27T06:35:40.394Z,55.88
2019-01-27T06:38:09.135Z,52.70
2019-01-27T06:40:37.885Z,51.50
2019-01-27T06:43:06.563Z,51.80
2019-01-27T06:45:35.173Z,52.62
2019-01-27T06:48:04.827Z,54.27
2019-01-27T06:50:34.250Z,44.00
2019-01-27T06:53:04.390Z,50.98
2019-01-27T06:55:33.649Z,44.65
2019-01-27T06:58:02.990Z,49.65
2019-01-27T07:00:43.253Z,52.53
2019-01-27T07:03:19.861Z,56.80
2019-01-27T07:05:50.571Z,62.23
2019-01-27T07:08:34.223Z,51.63
2019-01-27T07:11:10.892Z,54.48
2019-01-27T07:13:59.835Z,51.48
2019-01-27T07:16:36.535Z,47.45
2019-01-27T07:19:07.270Z,49.83
2019-01-27T07:21:37.988Z,47.05
2019-01-27T07:24:11.607Z,50.30
2019-01-27T07:26:47.960Z,48.02
2019-01-27T07:29:24.339Z,63.30
2019-01-27T07:32:00.996Z,91.60
2019-01-27T07:34:40.649Z,65.60
2019-01-27T07:37:14.547Z,59.73
2019-01-27T07:39:51.423Z,75.20
2019-01-27T07:42:22.351Z,77.97
2019-01-27T07:44:53.314Z,60.43
2019-01-27T07:47:39.956Z,62.43
2019-01-27T07:50:19.114Z,51.08
2019-01-27T07:52:49.971Z,60.60
2019-01-27T07:55:33.483Z,120.33
2019-01-27T07:58:04.241Z,71.12
2019-01-27T08:00:38.519Z,84.40
2019-01-27T08:03:15.837Z,56.00
2019-01-27T08:05:46.683Z,48.52
2019-01-27T08:08:32.082Z,43.92
2019-01-27T08:11:03.198Z,45.15
2019-01-27T08:13:33.375Z,44.35
2019-01-27T08:16:07.412Z,46.08
2019-01-27T08:18:39.363Z,41.80
2019-01-27T08:21:12.807Z,42.90
2019-01-27T08:23:43.512Z,42.08
2019-01-27T08:26:14.633Z,49.25
2019-01-27T08:28:57.651Z,48.23
2019-01-27T08:31:31.074Z,46.25
2019-01-27T08:34:11.197Z,50.67
2019-01-27T08:36:49.291Z,49.18
2019-01-27T08:39:29.256Z,47.98
2019-01-27T08:42:12.484Z,41.75
2019-01-27T08:44:45.898Z,49.05
2019-01-27T08:47:15.111Z,62.98
2019-01-27T08:49:43.747Z,72.42
2019-01-27T08:52:13.199Z,66.22
2019-01-27T08:54:42.917Z,78.55
2019-01-27T08:57:12.222Z,94.87
2019-01-27T08:59:41.498Z,56.63
2019-01-27T09:02:14.924Z,58.30
2019-01-27T09:04:46.684Z,56.70
2019-01-27T09:07:26.411Z,62.35
2019-01-27T09:10:09.595Z,59.80
2019-01-27T09:12:46.461Z,63.55
2019-01-27T09:15:26.107Z,56.90
2019-01-27T09:17:57.067Z,62.55
2019-01-27T09:20:27.903Z,91.30
2019-01-27T09:23:03.124Z,59.88
2019-01-27T09:25:34.768Z,65.10
2019-01-27T09:28:11.263Z,64.82
2019-01-27T09:30:54.196Z,61.77
2019-01-27T09:33:25.125Z,71.57
2019-01-27T09:35:55.731Z,57.55
2019-01-27T09:38:35.235Z,66.90
2019-01-27T09:41:06.107Z,60.58
2019-01-27T09:43:42.015Z,63.75
2019-01-27T09:46:19.539Z,54.75
2019-01-27T09:48:50.644Z,56.48
2019-01-27T09:51:36.784Z,62.08
2019-01-27T09:54:07.663Z,52.10
2019-01-27T09:56:38.560Z,60.88
2019-01-27T09:59:27.848Z,52.90
2019-01-27T10:01:59.278Z,58.60
2019-01-27T10:04:47.007Z,53.02
2019-01-27T10:07:20.305Z,51.48
2019-01-27T10:09:55.536Z,66.40
2019-01-27T10:12:38.174Z,63.17
2019-01-27T10:15:11.003Z,58.28
2019-01-27T10:17:41.780Z,66.82
2019-01-27T10:20:15.128Z,69.90
2019-01-27T10:22:45.372Z,73.02
2019-01-27T10:25:16.263Z,71.77
2019-01-27T10:27:46.948Z,69.17
2019-01-27T10:30:29.695Z,65.55
2019-01-27T10:33:07.052Z,65.30
2019-01-27T10:35:42.728Z,57.98
2019-01-27T10:38:11.001Z,63.73
2019-01-27T10:40:44.091Z,64.10
2019-01-27T10:43:24.121Z,64.70
2019-01-27T10:45:57.524Z,53.92
2019-01-27T10:48:43.608Z,58.58
2019-01-27T10:51:14.372Z,52.62
2019-01-27T10:53:47.484Z,49.08
2019-01-27T10:56:24.401Z,42.10
2019-01-27T10:58:55.546Z,43.98
2019-01-27T11:01:42.905Z,49.03
2019-01-27T11:04:15.953Z,49.53
2019-01-27T11:06:46.203Z,47.35
2019-01-27T11:09:16.322Z,45.78
2019-01-27T11:11:49.142Z,50.17
2019-01-27T11:14:19.938Z,41.68
2019-01-27T11:16:57.092Z,38.80
2019-01-27T11:19:28.956Z,35.85
2019-01-27T11:22:00.407Z,43.40
2019-01-27T11:24:31.533Z,38.75
2019-01-27T11:27:02.516Z,34.05
2019-01-27T11:29:33.277Z,38.05
2019-01-27T11:32:10.169Z,36.08
2019-01-27T11:34:41.254Z,40.48
2019-01-27T11:37:27.345Z,36.03
2019-01-27T11:39:58.814Z,38.67
2019-01-27T11:42:32.311Z,37.42
2019-01-27T11:45:03.419Z,32.73
2019-01-27T11:47:36.460Z,32.42
2019-01-27T11:50:15.941Z,33.38
2019-01-27T11:52:46.111Z,34.53
2019-01-27T11:55:15.292Z,35.33
2019-01-27T11:57:44.503Z,31.45
2019-01-27T12:00:17.670Z,29.72
2019-01-27T12:02:47.025Z,32.13
2019-01-27T12:05:16.153Z,30.50
2019-01-27T12:07:44.703Z,29.70
2019-01-27T12:10:15.549Z,26.93
2019-01-27T12:12:44.704Z,28.62
2019-01-27T12:15:18.906Z,32.93
2019-01-27T12:17:48.195Z,31.48
2019-01-27T12:20:17.211Z,29.52
2019-01-27T12:22:46.515Z,31.45
2019-01-27T12:25:16.689Z,25.80
2019-01-27T12:27:46.026Z,25.88
2019-01-27T12:30:17.684Z,31.27
2019-01-27T12:32:47.649Z,29.40
2019-01-27T12:35:17.176Z,30.65
2019-01-27T12:37:46.649Z,26.35
2019-01-27T12:40:18.209Z,27.48
2019-01-27T12:42:47.470Z,31.35
2019-01-27T12:45:17.266Z,29.18
2019-01-27T12:47:46.328Z,28.17
2019-01-27T12:50:19.538Z,27.02
2019-01-27T12:52:50.706Z,31.17
2019-01-27T12:55:19.895Z,30.80
2019-01-27T12:57:49.320Z,32.67
2019-01-27T13:00:36.063Z,28.12
2019-01-27T13:03:05.637Z,30.20
2019-01-27T13:05:35.166Z,29.30
2019-01-27T13:08:04.406Z,31.70
2019-01-27T13:10:33.598Z,30.17
2019-01-27T13:13:03.052Z,32.63
2019-01-27T13:15:32.313Z,36.08
2019-01-27T13:18:01.463Z,42.08
2019-01-27T13:20:30.101Z,39.40
2019-01-27T13:22:58.820Z,39.63
2019-01-27T13:25:28.254Z,37.13
2019-01-27T13:27:57.604Z,41.08
2019-01-27T13:30:27.103Z,41.37
2019-01-27T13:32:56.395Z,38.88
2019-01-27T13:35:25.972Z,41.80
2019-01-27T13:37:55.386Z,35.88
2019-01-27T13:40:28.262Z,39.88
2019-01-27T13:42:57.574Z,35.33
2019-01-27T13:45:30.642Z,36.65
2019-01-27T13:47:59.878Z,37.85
2019-01-27T13:50:29.558Z,42.15
2019-01-27T13:52:59.325Z,41.10
2019-01-27T13:55:30.489Z,44.33
2019-01-27T13:57:59.603Z,40.88
2019-01-27T14:00:37.502Z,34.10
2019-01-27T14:03:06.683Z,31.95
2019-01-27T14:05:35.990Z,32.10
2019-01-27T14:08:05.507Z,29.55
2019-01-27T14:10:34.583Z,28.92
2019-01-27T14:13:03.791Z,26.27
2019-01-27T14:15:39.139Z,25.43
2019-01-27T14:18:09.143Z,25.70
2019-01-27T14:20:38.365Z,25.92
2019-01-27T14:23:07.439Z,27.80
2019-01-27T14:25:36.623Z,29.12
2019-01-27T14:28:06.137Z,32.05
2019-01-27T14:30:37.911Z,31.27
2019-01-27T14:33:07.363Z,30.05
2019-01-27T14:35:36.508Z,33.80
2019-01-27T14:38:05.929Z,28.12
2019-01-27T14:40:36.272Z,32.10
2019-01-27T14:43:05.684Z,29.57
2019-01-27T14:45:35.052Z,28.57
2019-01-27T14:48:04.506Z,32.45
2019-01-27T14:50:45.253Z,37.17
2019-01-27T14:53:14.004Z,33.70
2019-01-27T14:55:43.039Z,36.30
2019-01-27T14:58:12.175Z,40.78
2019-01-27T15:00:43.865Z,40.20
2019-01-27T15:03:13.088Z,35.92
2019-01-27T15:05:42.332Z,40.15
2019-01-27T15:08:12.552Z,32.65
2019-01-27T15:10:42.767Z,38.55
2019-01-27T15:13:11.825Z,40.05
2019-01-27T15:15:40.814Z,40.45
2019-01-27T15:18:10.219Z,35.78
2019-01-27T15:20:42.944Z,38.65
2019-01-27T15:23:12.168Z,35.33
2019-01-27T15:25:41.595Z,42.38
2019-01-27T15:28:11.102Z,34.50
2019-01-27T15:30:40.598Z,35.08
2019-01-27T15:33:09.879Z,36.50
2019-01-27T15:35:39.210Z,40.60
2019-01-27T15:38:09.496Z,39.73
2019-01-27T15:40:38.695Z,33.02
2019-01-27T15:43:07.823Z,34.88
2019-01-27T15:45:37.105Z,31.37
2019-01-27T15:48:07.129Z,40.08
2019-01-27T15:50:37.171Z,34.65
2019-01-27T15:53:06.939Z,36.17
2019-01-27T15:55:38.152Z,35.05
2019-01-27T15:58:07.922Z,32.20
2019-01-27T16:00:37.415Z,35.00
2019-01-27T16:03:06.687Z,35.43
2019-01-27T16:05:35.920Z,31.42
2019-01-27T16:08:05.395Z,29.70
2019-01-27T16:10:35.592Z,29.27
2019-01-27T16:13:04.464Z,30.82
2019-01-27T16:15:35.410Z,27.00
2019-01-27T16:18:05.832Z,29.67
2019-01-27T16:20:34.993Z,25.95
2019-01-27T16:23:08.514Z,27.55
2019-01-27T16:25:37.545Z,31.48
2019-01-27T16:28:06.486Z,33.92
2019-01-27T16:30:44.908Z,33.70
2019-01-27T16:33:15.764Z,29.37
2019-01-27T16:35:44.946Z,28.25
2019-01-27T16:38:14.402Z,24.35
2019-01-27T16:40:43.923Z,34.85
2019-01-27T16:43:13.239Z,28.80
2019-01-27T16:45:42.523Z,26.65
2019-01-27T16:48:11.847Z,35.43
2019-01-27T16:50:41.148Z,34.03
2019-01-27T16:53:10.668Z,30.92
2019-01-27T16:55:39.932Z,28.85
2019-01-27T16:58:09.091Z,31.45
2019-01-27T17:00:41.487Z,28.80
2019-01-27T17:03:10.249Z,26.20
2019-01-27T17:05:39.029Z,27.50
2019-01-27T17:08:08.263Z,31.00
2019-01-27T17:10:37.757Z,29.70
2019-01-27T17:13:07.117Z,32.95
2019-01-27T17:15:36.552Z,29.15
2019-01-27T17:18:07.045Z,31.25
2019-01-27T17:20:36.448Z,27.07
2019-01-27T17:23:06.599Z,29.80
2019-01-27T17:25:35.666Z,28.70
2019-01-27T17:28:04.908Z,25.82
2019-01-27T17:30:34.417Z,26.48
2019-01-27T17:33:03.679Z,28.15
2019-01-27T17:35:33.014Z,30.92
2019-01-27T17:38:02.294Z,34.88
2019-01-27T17:40:31.766Z,35.03
2019-01-27T17:43:02.019Z,25.68
2019-01-27T17:45:31.006Z,28.27
2019-01-27T17:48:01.627Z,27.42
2019-01-27T17:50:30.854Z,27.55
2019-01-27T17:53:00.101Z,27.52
2019-01-27T17:55:43.333Z,26.90
2019-01-27T17:58:44.786Z,23.77
2019-01-27T18:01:24.343Z,25.50
2019-01-27T18:03:59.453Z,23.20
2019-01-27T18:06:33.342Z,23.30
2019-01-27T18:09:16.246Z,22.07
2019-01-27T18:11:50.986Z,22.90
2019-01-27T18:14:22.681Z,23.32
2019-01-27T18:16:52.183Z,23.50
2019-01-27T18:19:21.528Z,23.67
2019-01-27T18:21:51.630Z,20.20
2019-01-27T18:24:21.114Z,21.82
2019-01-27T18:26:49.761Z,23.35
2019-01-27T18:29:18.603Z,22.65
2019-01-27T18:31:47.508Z,20.90
2019-01-27T18:34:16.263Z,22.22
2019-01-27T18:36:45.111Z,20.08
2019-01-27T18:39:14.971Z,21.68
2019-01-27T18:41:44.292Z,23.40
2019-01-27T18:44:13.563Z,21.57
2019-01-27T18:46:43.557Z,20.72
2019-01-27T18:49:12.675Z,21.40
2019-01-27T18:51:42.264Z,21.48
2019-01-27T18:54:23.387Z,25.40
2019-01-27T18:56:54.160Z,27.17
2019-01-27T18:59:25.106Z,22.32
2019-01-27T19:02:01.502Z,25.85
2019-01-27T19:04:32.185Z,23.52
2019-01-27T19:07:02.917Z,24.50
2019-01-27T19:09:48.808Z,23.27
2019-01-27T19:12:19.879Z,24.52
2019-01-27T19:15:07.490Z,25.35
2019-01-27T19:17:54.544Z,25.68
2019-01-27T19:20:34.526Z,26.42
2019-01-27T19:23:17.885Z,27.82
2019-01-27T19:26:05.202Z,24.25
2019-01-27T19:28:41.668Z,28.75
2019-01-27T19:31:12.670Z,24.82
2019-01-27T19:33:44.461Z,25.08
2019-01-27T19:36:15.354Z,28.10
2019-01-27T19:38:46.276Z,27.58
2019-01-27T19:41:26.407Z,26.93
2019-01-27T19:44:03.271Z,26.77
2019-01-27T19:46:33.885Z,28.05
2019-01-27T19:49:05.539Z,29.65
2019-01-27T19:51:45.088Z,30.27
2019-01-27T19:54:18.472Z,28.30
2019-01-27T19:56:48.732Z,29.20
2019-01-27T19:59:21.714Z,30.68
2019-01-27T20:01:52.531Z,29.92
2019-01-27T20:04:25.394Z,30.17
2019-01-27T20:06:56.668Z,30.72
2019-01-27T20:09:28.471Z,30.25
2019-01-27T20:11:59.710Z,29.40
2019-01-27T20:14:47.416Z,29.80
2019-01-27T20:17:33.198Z,30.62
2019-01-27T20:20:19.499Z,31.07
2019-01-27T20:22:56.665Z,32.80
2019-01-27T20:25:44.528Z,31.50
2019-01-27T20:28:15.457Z,32.93
2019-01-27T20:30:52.823Z,33.98
2019-01-27T20:33:26.085Z,33.05
2019-01-27T20:36:13.628Z,32.00
2019-01-27T20:38:44.393Z,34.45
2019-01-27T20:41:18.080Z,35.78
2019-01-27T20:43:51.156Z,37.05
2019-01-27T20:46:24.127Z,35.38
2019-01-27T20:48:54.388Z,38.20
2019-01-27T20:51:27.687Z,38.95
2019-01-27T20:54:15.013Z,39.23
2019-01-27T20:56:54.644Z,38.65
2019-01-27T20:59:28.327Z,34.92
2019-01-27T21:02:08.132Z,36.73
2019-01-27T21:04:42.372Z,37.93
2019-01-27T21:07:13.447Z,36.30
2019-01-27T21:09:56.683Z,37.93
2019-01-27T21:12:30.042Z,36.00
2019-01-27T21:15:14.303Z,37.35
2019-01-27T21:18:00.632Z,35.10
2019-01-27T21:20:29.977Z,34.25
2019-01-27T21:22:59.228Z,30.05
2019-01-27T21:25:28.209Z,34.18
2019-01-27T21:27:56.876Z,29.95
2019-01-27T21:30:25.691Z,29.35
2019-01-27T21:32:55.811Z,26.80
2019-01-27T21:35:25.049Z,28.27
2019-01-27T21:37:54.307Z,30.27
2019-01-27T21:40:23.495Z,32.73
2019-01-27T21:42:52.725Z,32.70
2019-01-27T21:45:21.762Z,29.25
2019-01-27T21:47:51.682Z,35.43
2019-01-27T21:50:20.936Z,27.95
2019-01-27T21:52:50.477Z,27.67
2019-01-27T21:55:20.705Z,32.28
2019-01-27T21:57:49.625Z,27.07
2019-01-27T22:00:20.454Z,26.62
2019-01-27T22:02:49.693Z,27.20
2019-01-27T22:05:18.874Z,27.95
2019-01-27T22:07:47.517Z,27.20
2019-01-27T22:10:16.268Z,27.55
2019-01-27T22:12:45.950Z,26.45
2019-01-27T22:15:15.155Z,30.27
2019-01-27T22:17:44.819Z,29.87
2019-01-27T22:20:15.009Z,30.97
2019-01-27T22:22:45.915Z,33.38
2019-01-27T22:25:15.993Z,31.33
2019-01-27T22:27:45.342Z,29.25
2019-01-27T22:30:18.786Z,29.55
2019-01-27T22:32:48.053Z,30.90
2019-01-27T22:35:17.115Z,28.55
2019-01-27T22:37:46.297Z,28.32
2019-01-27T22:40:16.950Z,31.45
2019-01-27T22:42:47.638Z,31.52
2019-01-27T22:45:17.125Z,28.92
2019-01-27T22:47:46.631Z,27.73
2019-01-27T22:50:17.086Z,29.40
2019-01-27T22:52:45.790Z,32.50
2019-01-27T22:55:14.640Z,30.77
2019-01-27T22:57:43.374Z,31.07
2019-01-27T23:00:15.205Z,32.50
2019-01-27T23:02:44.786Z,31.17
2019-01-27T23:05:14.442Z,36.08
2019-01-27T23:07:45.088Z,31.07
2019-01-27T23:10:14.220Z,31.25
2019-01-27T23:12:43.368Z,31.75
2019-01-27T23:15:12.900Z,34.20
2019-01-27T23:17:42.444Z,31.15
2019-01-27T23:20:11.828Z,32.95
2019-01-27T23:22:40.963Z,33.13
2019-01-27T23:25:10.386Z,33.58
2019-01-27T23:27:39.985Z,33.50
2019-01-27T23:30:10.474Z,36.98
2019-01-27T23:32:39.286Z,32.88
2019-01-27T23:35:08.492Z,35.15
2019-01-27T23:37:37.313Z,39.42
2019-01-27T23:40:08.183Z,34.40
2019-01-27T23:42:37.022Z,33.65
2019-01-27T23:45:08.852Z,37.13
2019-01-27T23:47:39.062Z,37.00
2019-01-27T23:50:09.149Z,36.08
2019-01-27T23:52:38.108Z,34.90
2019-01-27T23:55:11.285Z,35.35
2019-01-27T23:57:40.389Z,35.68
